Terminal Aerodrome Forecast
Issued by NWS Wakefield, VA

Home | Current Version | Previous Version | Text Only | Print | Product List | Glossary On
Versions: 1 2 3 4 5 6 7 8 9 10 11 12 13 14
000
FTUS41 KAKQ 222300
TAFRIC
TAF
KRIC 222336Z 2300/2324 01007KT 3SM -DZ BR OVC004
     FM230400 35003KT 3/4SM -DZ BR OVC003
     FM231500 03003KT 2SM -DZ BR OVC004
     FM232000 15004KT 2SM BR OVC010=

USA.gov is the U.S. government's official web portal to all federal, state and local government web resources and services.